sensor_id;sensor_type;location;lat;lon;timestamp;temperature;humidity
41928;DHT22;27616;51.420;6.788;2023-05-10T00:00:47;13.20;99.90
41928;DHT22;27616;51.420;6.788;2023-05-10T00:03:13;13.20;99.90
41928;DHT22;27616;51.420;6.788;2023-05-10T00:05:38;13.20;99.90
41928;DHT22;27616;51.420;6.788;2023-05-10T00:08:04;13.20;99.90
41928;DHT22;27616;51.420;6.788;2023-05-10T00:10:30;13.20;99.90
41928;DHT22;27616;51.420;6.788;2023-05-10T00:12:56;13.30;99.90
41928;DHT22;27616;51.420;6.788;2023-05-10T00:15:21;13.30;99.90
41928;DHT22;27616;51.420;6.788;2023-05-10T00:17:47;13.30;99.90
41928;DHT22;27616;51.420;6.788;2023-05-10T00:20:13;13.20;99.90
41928;DHT22;27616;51.420;6.788;2023-05-10T00:22:38;13.20;99.90
41928;DHT22;27616;51.420;6.788;2023-05-10T00:25:05;13.20;99.90
41928;DHT22;27616;51.420;6.788;2023-05-10T00:27:31;13.10;99.90
41928;DHT22;27616;51.420;6.788;2023-05-10T00:29:57;13.00;99.90
41928;DHT22;27616;51.420;6.788;2023-05-10T00:32:22;13.00;99.90
41928;DHT22;27616;51.420;6.788;2023-05-10T00:34:48;12.90;99.90
41928;DHT22;27616;51.420;6.788;2023-05-10T00:37:14;12.90;99.90
41928;DHT22;27616;51.420;6.788;2023-05-10T00:39:40;12.80;99.90
41928;DHT22;27616;51.420;6.788;2023-05-10T00:42:05;12.80;99.90
41928;DHT22;27616;51.420;6.788;2023-05-10T00:44:31;12.80;99.90
41928;DHT22;27616;51.420;6.788;2023-05-10T00:46:58;12.80;99.90
41928;DHT22;27616;51.420;6.788;2023-05-10T00:49:24;12.80;99.90
41928;DHT22;27616;51.420;6.788;2023-05-10T00:51:50;12.70;99.90
41928;DHT22;27616;51.420;6.788;2023-05-10T00:54:16;12.70;99.90
41928;DHT22;27616;51.420;6.788;2023-05-10T00:56:41;12.70;99.90
41928;DHT22;27616;51.420;6.788;2023-05-10T00:59:09;12.70;99.90
41928;DHT22;27616;51.420;6.788;2023-05-10T01:01:36;12.70;99.90
41928;DHT22;27616;51.420;6.788;2023-05-10T01:04:02;12.70;99.90
41928;DHT22;27616;51.420;6.788;2023-05-10T01:06:28;12.70;99.90
41928;DHT22;27616;51.420;6.788;2023-05-10T01:08:55;12.70;99.90
41928;DHT22;27616;51.420;6.788;2023-05-10T01:11:21;12.70;99.90
41928;DHT22;27616;51.420;6.788;2023-05-10T01:13:52;12.70;99.90
41928;DHT22;27616;51.420;6.788;2023-05-10T01:16:20;12.70;99.90
41928;DHT22;27616;51.420;6.788;2023-05-10T01:18:48;12.70;99.90
41928;DHT22;27616;51.420;6.788;2023-05-10T01:27:02;12.80;99.90
41928;DHT22;27616;51.420;6.788;2023-05-10T01:32:30;12.70;99.90
41928;DHT22;27616;51.420;6.788;2023-05-10T01:35:03;12.70;99.90
41928;DHT22;27616;51.420;6.788;2023-05-10T01:37:38;12.70;99.90
41928;DHT22;27616;51.420;6.788;2023-05-10T01:40:15;12.60;99.90
41928;DHT22;27616;51.420;6.788;2023-05-10T01:43:00;12.60;99.90
41928;DHT22;27616;51.420;6.788;2023-05-10T01:45:50;12.50;99.90
41928;DHT22;27616;51.420;6.788;2023-05-10T01:48:17;12.50;99.90
41928;DHT22;27616;51.420;6.788;2023-05-10T01:50:45;12.50;99.90
41928;DHT22;27616;51.420;6.788;2023-05-10T01:53:12;12.50;99.90
41928;DHT22;27616;51.420;6.788;2023-05-10T01:55:44;12.50;99.90
41928;DHT22;27616;51.420;6.788;2023-05-10T01:58:28;12.60;99.90
41928;DHT22;27616;51.420;6.788;2023-05-10T02:00:55;12.50;99.90
41928;DHT22;27616;51.420;6.788;2023-05-10T02:03:25;12.50;99.90
41928;DHT22;27616;51.420;6.788;2023-05-10T02:05:54;12.50;99.90
41928;DHT22;27616;51.420;6.788;2023-05-10T02:08:22;12.50;99.90
41928;DHT22;27616;51.420;6.788;2023-05-10T02:10:51;12.50;99.90
41928;DHT22;27616;51.420;6.788;2023-05-10T02:13:18;12.50;99.90
41928;DHT22;27616;51.420;6.788;2023-05-10T02:15:47;12.50;99.90
41928;DHT22;27616;51.420;6.788;2023-05-10T02:18:14;12.50;99.90
41928;DHT22;27616;51.420;6.788;2023-05-10T02:20:41;12.60;99.90
41928;DHT22;27616;51.420;6.788;2023-05-10T02:23:08;12.60;99.90
41928;DHT22;27616;51.420;6.788;2023-05-10T02:25:35;12.60;99.90
41928;DHT22;27616;51.420;6.788;2023-05-10T02:28:04;12.60;99.90
41928;DHT22;27616;51.420;6.788;2023-05-10T02:30:31;12.60;99.90
41928;DHT22;27616;51.420;6.788;2023-05-10T02:32:58;12.60;99.90
41928;DHT22;27616;51.420;6.788;2023-05-10T02:35:26;12.70;99.90
41928;DHT22;27616;51.420;6.788;2023-05-10T02:37:53;12.70;99.90
41928;DHT22;27616;51.420;6.788;2023-05-10T02:40:19;12.70;99.90
41928;DHT22;27616;51.420;6.788;2023-05-10T02:42:48;12.70;99.90
41928;DHT22;27616;51.420;6.788;2023-05-10T02:45:18;12.70;99.90
41928;DHT22;27616;51.420;6.788;2023-05-10T02:47:45;12.70;99.90
41928;DHT22;27616;51.420;6.788;2023-05-10T02:50:10;12.70;99.90
41928;DHT22;27616;51.420;6.788;2023-05-10T02:52:47;12.70;99.90
41928;DHT22;27616;51.420;6.788;2023-05-10T02:55:16;12.70;99.90
41928;DHT22;27616;51.420;6.788;2023-05-10T02:57:59;12.70;99.90
41928;DHT22;27616;51.420;6.788;2023-05-10T03:00:25;12.70;99.90
41928;DHT22;27616;51.420;6.788;2023-05-10T03:02:51;12.70;99.90
41928;DHT22;27616;51.420;6.788;2023-05-10T03:05:17;12.70;99.90
41928;DHT22;27616;51.420;6.788;2023-05-10T03:07:43;12.70;99.90
41928;DHT22;27616;51.420;6.788;2023-05-10T03:10:10;12.70;99.90
41928;DHT22;27616;51.420;6.788;2023-05-10T03:15:32;12.70;99.90
41928;DHT22;27616;51.420;6.788;2023-05-10T03:18:08;12.70;99.90
41928;DHT22;27616;51.420;6.788;2023-05-10T03:20:41;12.70;99.90
41928;DHT22;27616;51.420;6.788;2023-05-10T03:25:44;12.80;99.90
41928;DHT22;27616;51.420;6.788;2023-05-10T03:28:14;12.80;99.90
41928;DHT22;27616;51.420;6.788;2023-05-10T03:30:41;12.80;99.90
41928;DHT22;27616;51.420;6.788;2023-05-10T03:33:10;12.80;99.90
41928;DHT22;27616;51.420;6.788;2023-05-10T03:35:39;12.80;99.90
41928;DHT22;27616;51.420;6.788;2023-05-10T03:38:05;12.80;99.90
41928;DHT22;27616;51.420;6.788;2023-05-10T03:40:31;12.80;99.90
41928;DHT22;27616;51.420;6.788;2023-05-10T03:42:59;12.90;99.90
41928;DHT22;27616;51.420;6.788;2023-05-10T03:45:25;12.80;99.90
41928;DHT22;27616;51.420;6.788;2023-05-10T03:47:51;12.90;99.90
41928;DHT22;27616;51.420;6.788;2023-05-10T03:50:17;12.90;99.90
41928;DHT22;27616;51.420;6.788;2023-05-10T03:52:43;12.90;99.90
41928;DHT22;27616;51.420;6.788;2023-05-10T03:55:10;12.90;99.90
41928;DHT22;27616;51.420;6.788;2023-05-10T03:57:37;12.90;99.90
41928;DHT22;27616;51.420;6.788;2023-05-10T04:00:03;12.90;99.90
41928;DHT22;27616;51.420;6.788;2023-05-10T04:02:39;12.90;99.90
41928;DHT22;27616;51.420;6.788;2023-05-10T04:05:07;12.90;99.90
41928;DHT22;27616;51.420;6.788;2023-05-10T04:07:33;12.90;99.90
41928;DHT22;27616;51.420;6.788;2023-05-10T04:09:58;13.00;99.90
41928;DHT22;27616;51.420;6.788;2023-05-10T04:12:24;13.00;99.90
41928;DHT22;27616;51.420;6.788;2023-05-10T04:14:50;12.90;99.90
41928;DHT22;27616;51.420;6.788;2023-05-10T04:17:16;13.00;99.90
41928;DHT22;27616;51.420;6.788;2023-05-10T04:19:42;13.00;99.90
41928;DHT22;27616;51.420;6.788;2023-05-10T04:22:07;13.00;99.90
41928;DHT22;27616;51.420;6.788;2023-05-10T04:24:33;13.00;99.90
41928;DHT22;27616;51.420;6.788;2023-05-10T04:26:59;13.00;99.90
41928;DHT22;27616;51.420;6.788;2023-05-10T04:29:25;13.00;99.90
41928;DHT22;27616;51.420;6.788;2023-05-10T04:31:52;13.00;99.90
41928;DHT22;27616;51.420;6.788;2023-05-10T04:34:20;13.00;99.90
41928;DHT22;27616;51.420;6.788;2023-05-10T04:36:46;13.10;99.90
41928;DHT22;27616;51.420;6.788;2023-05-10T04:39:11;13.10;99.90
41928;DHT22;27616;51.420;6.788;2023-05-10T04:41:38;13.10;99.90
41928;DHT22;27616;51.420;6.788;2023-05-10T04:44:04;13.10;99.90
41928;DHT22;27616;51.420;6.788;2023-05-10T04:46:29;13.10;99.90
41928;DHT22;27616;51.420;6.788;2023-05-10T04:48:55;13.10;99.90
41928;DHT22;27616;51.420;6.788;2023-05-10T04:51:21;13.20;99.90
41928;DHT22;27616;51.420;6.788;2023-05-10T04:53:46;13.20;99.90
41928;DHT22;27616;51.420;6.788;2023-05-10T04:56:12;13.30;99.90
41928;DHT22;27616;51.420;6.788;2023-05-10T04:58:38;13.30;99.90
41928;DHT22;27616;51.420;6.788;2023-05-10T05:01:07;13.30;99.90
41928;DHT22;27616;51.420;6.788;2023-05-10T05:03:33;13.30;99.90
41928;DHT22;27616;51.420;6.788;2023-05-10T05:05:59;13.30;99.90
41928;DHT22;27616;51.420;6.788;2023-05-10T05:08:25;13.30;99.90
41928;DHT22;27616;51.420;6.788;2023-05-10T05:10:51;13.30;99.90
41928;DHT22;27616;51.420;6.788;2023-05-10T05:13:17;13.30;99.90
41928;DHT22;27616;51.420;6.788;2023-05-10T05:15:42;13.20;99.90
41928;DHT22;27616;51.420;6.788;2023-05-10T05:18:08;13.20;99.90
41928;DHT22;27616;51.420;6.788;2023-05-10T05:20:34;13.20;99.90
41928;DHT22;27616;51.420;6.788;2023-05-10T05:23:00;13.20;99.90
41928;DHT22;27616;51.420;6.788;2023-05-10T05:25:26;13.30;99.90
41928;DHT22;27616;51.420;6.788;2023-05-10T05:27:52;13.30;99.90
41928;DHT22;27616;51.420;6.788;2023-05-10T05:30:17;13.30;99.90
41928;DHT22;27616;51.420;6.788;2023-05-10T05:32:43;13.20;99.90
41928;DHT22;27616;51.420;6.788;2023-05-10T05:35:09;13.30;99.90
41928;DHT22;27616;51.420;6.788;2023-05-10T05:37:35;13.30;99.90
41928;DHT22;27616;51.420;6.788;2023-05-10T05:40:01;13.30;99.90
41928;DHT22;27616;51.420;6.788;2023-05-10T05:42:27;13.30;99.90
41928;DHT22;27616;51.420;6.788;2023-05-10T05:44:53;13.30;99.90
41928;DHT22;27616;51.420;6.788;2023-05-10T05:47:18;13.30;99.90
41928;DHT22;27616;51.420;6.788;2023-05-10T05:49:44;13.30;99.90
41928;DHT22;27616;51.420;6.788;2023-05-10T05:52:13;13.40;99.90
41928;DHT22;27616;51.420;6.788;2023-05-10T05:54:38;13.40;99.90
41928;DHT22;27616;51.420;6.788;2023-05-10T05:57:04;13.40;99.90
41928;DHT22;27616;51.420;6.788;2023-05-10T05:59:30;13.50;99.90
41928;DHT22;27616;51.420;6.788;2023-05-10T06:01:56;13.40;99.90
41928;DHT22;27616;51.420;6.788;2023-05-10T06:04:21;13.40;99.90
41928;DHT22;27616;51.420;6.788;2023-05-10T06:06:47;13.40;99.90
41928;DHT22;27616;51.420;6.788;2023-05-10T06:09:13;13.40;99.90
41928;DHT22;27616;51.420;6.788;2023-05-10T06:11:39;13.40;99.90
41928;DHT22;27616;51.420;6.788;2023-05-10T06:14:05;13.40;99.90
41928;DHT22;27616;51.420;6.788;2023-05-10T06:16:32;13.40;99.90
41928;DHT22;27616;51.420;6.788;2023-05-10T06:18:58;13.50;99.90
41928;DHT22;27616;51.420;6.788;2023-05-10T06:21:24;13.50;99.90
41928;DHT22;27616;51.420;6.788;2023-05-10T06:23:50;13.50;99.90
41928;DHT22;27616;51.420;6.788;2023-05-10T06:26:15;13.60;99.90
41928;DHT22;27616;51.420;6.788;2023-05-10T06:28:41;13.60;99.90
41928;DHT22;27616;51.420;6.788;2023-05-10T06:31:07;13.70;99.90
41928;DHT22;27616;51.420;6.788;2023-05-10T06:33:33;13.70;99.90
41928;DHT22;27616;51.420;6.788;2023-05-10T06:35:59;13.70;99.90
41928;DHT22;27616;51.420;6.788;2023-05-10T06:38:25;13.80;99.90
41928;DHT22;27616;51.420;6.788;2023-05-10T06:40:51;13.70;99.90
41928;DHT22;27616;51.420;6.788;2023-05-10T06:43:17;13.70;99.90
41928;DHT22;27616;51.420;6.788;2023-05-10T06:45:43;13.80;99.90
41928;DHT22;27616;51.420;6.788;2023-05-10T06:48:09;13.80;99.90
41928;DHT22;27616;51.420;6.788;2023-05-10T06:50:35;13.80;99.90
41928;DHT22;27616;51.420;6.788;2023-05-10T06:53:01;13.80;99.90
41928;DHT22;27616;51.420;6.788;2023-05-10T06:55:29;13.80;99.90
41928;DHT22;27616;51.420;6.788;2023-05-10T06:57:55;13.80;99.90
41928;DHT22;27616;51.420;6.788;2023-05-10T07:00:21;13.80;99.90
41928;DHT22;27616;51.420;6.788;2023-05-10T07:02:47;13.80;99.90
41928;DHT22;27616;51.420;6.788;2023-05-10T07:05:13;13.80;99.90
41928;DHT22;27616;51.420;6.788;2023-05-10T07:07:39;13.80;99.90
41928;DHT22;27616;51.420;6.788;2023-05-10T07:10:05;13.80;99.90
41928;DHT22;27616;51.420;6.788;2023-05-10T07:12:32;13.70;99.90
41928;DHT22;27616;51.420;6.788;2023-05-10T07:14:58;13.80;99.90
41928;DHT22;27616;51.420;6.788;2023-05-10T07:17:24;13.80;99.90
41928;DHT22;27616;51.420;6.788;2023-05-10T07:19:50;13.80;99.90
41928;DHT22;27616;51.420;6.788;2023-05-10T07:22:16;13.80;99.90
41928;DHT22;27616;51.420;6.788;2023-05-10T07:24:42;13.80;99.90
41928;DHT22;27616;51.420;6.788;2023-05-10T07:27:08;13.90;99.90
41928;DHT22;27616;51.420;6.788;2023-05-10T07:29:35;13.90;99.90
41928;DHT22;27616;51.420;6.788;2023-05-10T07:32:01;13.80;99.90
41928;DHT22;27616;51.420;6.788;2023-05-10T07:34:26;13.90;99.90
41928;DHT22;27616;51.420;6.788;2023-05-10T07:36:52;13.90;99.90
41928;DHT22;27616;51.420;6.788;2023-05-10T07:39:18;14.00;99.90
41928;DHT22;27616;51.420;6.788;2023-05-10T07:41:46;14.00;99.90
41928;DHT22;27616;51.420;6.788;2023-05-10T07:44:11;14.20;99.90
41928;DHT22;27616;51.420;6.788;2023-05-10T07:46:37;14.30;99.90
41928;DHT22;27616;51.420;6.788;2023-05-10T07:49:03;14.30;99.90
41928;DHT22;27616;51.420;6.788;2023-05-10T07:51:29;14.40;99.90
41928;DHT22;27616;51.420;6.788;2023-05-10T07:53:54;14.40;99.90
41928;DHT22;27616;51.420;6.788;2023-05-10T07:58:51;14.40;99.90
41928;DHT22;27616;51.420;6.788;2023-05-10T08:01:17;14.40;99.90
41928;DHT22;27616;51.420;6.788;2023-05-10T08:03:43;14.30;99.90
41928;DHT22;27616;51.420;6.788;2023-05-10T08:06:09;14.30;99.90
41928;DHT22;27616;51.420;6.788;2023-05-10T08:08:34;14.30;99.90
41928;DHT22;27616;51.420;6.788;2023-05-10T08:11:00;14.40;99.90
41928;DHT22;27616;51.420;6.788;2023-05-10T08:13:26;14.40;99.90
41928;DHT22;27616;51.420;6.788;2023-05-10T08:15:51;14.40;99.90
41928;DHT22;27616;51.420;6.788;2023-05-10T08:18:19;14.60;99.90
41928;DHT22;27616;51.420;6.788;2023-05-10T08:20:45;14.70;99.90
41928;DHT22;27616;51.420;6.788;2023-05-10T08:23:12;14.80;99.90
41928;DHT22;27616;51.420;6.788;2023-05-10T08:25:38;15.00;99.90
41928;DHT22;27616;51.420;6.788;2023-05-10T08:28:04;14.90;99.90
41928;DHT22;27616;51.420;6.788;2023-05-10T08:30:30;15.00;99.90
41928;DHT22;27616;51.420;6.788;2023-05-10T08:32:56;15.00;99.90
41928;DHT22;27616;51.420;6.788;2023-05-10T08:35:21;14.90;99.90
41928;DHT22;27616;51.420;6.788;2023-05-10T08:37:47;14.90;99.90
41928;DHT22;27616;51.420;6.788;2023-05-10T08:40:14;14.90;99.90
41928;DHT22;27616;51.420;6.788;2023-05-10T08:42:47;15.00;99.90
41928;DHT22;27616;51.420;6.788;2023-05-10T08:45:16;15.00;99.90
41928;DHT22;27616;51.420;6.788;2023-05-10T08:47:42;15.10;99.90
41928;DHT22;27616;51.420;6.788;2023-05-10T08:50:09;15.40;99.90
41928;DHT22;27616;51.420;6.788;2023-05-10T08:52:38;15.40;99.90
41928;DHT22;27616;51.420;6.788;2023-05-10T08:55:07;15.40;99.90
41928;DHT22;27616;51.420;6.788;2023-05-10T08:57:33;15.40;99.90
41928;DHT22;27616;51.420;6.788;2023-05-10T09:00:00;15.30;99.90
41928;DHT22;27616;51.420;6.788;2023-05-10T09:02:26;15.20;99.90
41928;DHT22;27616;51.420;6.788;2023-05-10T09:04:52;15.10;99.90
41928;DHT22;27616;51.420;6.788;2023-05-10T09:07:18;15.00;99.90
41928;DHT22;27616;51.420;6.788;2023-05-10T09:09:46;15.10;99.90
41928;DHT22;27616;51.420;6.788;2023-05-10T09:12:12;15.10;99.90
41928;DHT22;27616;51.420;6.788;2023-05-10T09:14:39;15.20;99.90
41928;DHT22;27616;51.420;6.788;2023-05-10T09:17:05;15.20;99.90
41928;DHT22;27616;51.420;6.788;2023-05-10T09:19:30;15.20;99.90
41928;DHT22;27616;51.420;6.788;2023-05-10T09:21:56;15.20;99.90
41928;DHT22;27616;51.420;6.788;2023-05-10T09:24:25;15.20;99.90
41928;DHT22;27616;51.420;6.788;2023-05-10T09:26:52;15.10;99.90
41928;DHT22;27616;51.420;6.788;2023-05-10T09:29:18;15.20;99.90
41928;DHT22;27616;51.420;6.788;2023-05-10T09:31:44;15.20;99.90
41928;DHT22;27616;51.420;6.788;2023-05-10T09:34:16;15.20;99.90
41928;DHT22;27616;51.420;6.788;2023-05-10T09:36:55;15.20;99.90
41928;DHT22;27616;51.420;6.788;2023-05-10T09:39:30;15.10;99.90
41928;DHT22;27616;51.420;6.788;2023-05-10T09:41:57;15.10;99.90
41928;DHT22;27616;51.420;6.788;2023-05-10T09:44:23;15.00;99.90
41928;DHT22;27616;51.420;6.788;2023-05-10T09:46:49;15.00;99.90
41928;DHT22;27616;51.420;6.788;2023-05-10T09:49:16;15.00;99.90
41928;DHT22;27616;51.420;6.788;2023-05-10T09:51:42;15.10;99.90
41928;DHT22;27616;51.420;6.788;2023-05-10T09:54:13;15.10;99.90
41928;DHT22;27616;51.420;6.788;2023-05-10T09:56:39;15.20;99.90
41928;DHT22;27616;51.420;6.788;2023-05-10T09:59:10;15.20;99.90
41928;DHT22;27616;51.420;6.788;2023-05-10T10:01:36;15.20;99.90
41928;DHT22;27616;51.420;6.788;2023-05-10T10:04:07;15.30;99.90
41928;DHT22;27616;51.420;6.788;2023-05-10T10:06:37;15.20;99.90
41928;DHT22;27616;51.420;6.788;2023-05-10T10:09:04;15.10;99.90
41928;DHT22;27616;51.420;6.788;2023-05-10T10:11:30;14.90;99.90
41928;DHT22;27616;51.420;6.788;2023-05-10T10:13:56;14.70;99.90
41928;DHT22;27616;51.420;6.788;2023-05-10T10:16:21;14.70;99.90
41928;DHT22;27616;51.420;6.788;2023-05-10T10:18:48;14.60;99.90
41928;DHT22;27616;51.420;6.788;2023-05-10T10:21:15;14.60;99.90
41928;DHT22;27616;51.420;6.788;2023-05-10T10:23:41;14.60;99.90
41928;DHT22;27616;51.420;6.788;2023-05-10T10:26:07;14.70;99.90
41928;DHT22;27616;51.420;6.788;2023-05-10T10:29:04;14.80;99.90
41928;DHT22;27616;51.420;6.788;2023-05-10T10:32:10;14.80;99.90
41928;DHT22;27616;51.420;6.788;2023-05-10T10:34:33;14.90;99.90
41928;DHT22;27616;51.420;6.788;2023-05-10T10:37:04;14.80;99.90
41928;DHT22;27616;51.420;6.788;2023-05-10T10:39:31;14.80;99.90
41928;DHT22;27616;51.420;6.788;2023-05-10T10:41:57;14.80;99.90
41928;DHT22;27616;51.420;6.788;2023-05-10T10:44:24;14.80;99.90
41928;DHT22;27616;51.420;6.788;2023-05-10T10:50:07;15.00;99.90
41928;DHT22;27616;51.420;6.788;2023-05-10T10:52:38;15.00;99.90
41928;DHT22;27616;51.420;6.788;2023-05-10T10:55:06;14.90;99.90
41928;DHT22;27616;51.420;6.788;2023-05-10T11:00:29;14.70;99.90
41928;DHT22;27616;51.420;6.788;2023-05-10T11:08:10;14.40;99.90
41928;DHT22;27616;51.420;6.788;2023-05-10T11:10:36;14.40;99.90
41928;DHT22;27616;51.420;6.788;2023-05-10T11:13:06;14.40;99.90
41928;DHT22;27616;51.420;6.788;2023-05-10T11:15:39;14.50;99.90
41928;DHT22;27616;51.420;6.788;2023-05-10T11:18:25;14.60;99.90
41928;DHT22;27616;51.420;6.788;2023-05-10T11:21:01;14.70;99.90
41928;DHT22;27616;51.420;6.788;2023-05-10T11:23:55;14.90;99.90
41928;DHT22;27616;51.420;6.788;2023-05-10T11:26:23;15.10;99.90
41928;DHT22;27616;51.420;6.788;2023-05-10T11:28:52;15.30;99.90
41928;DHT22;27616;51.420;6.788;2023-05-10T11:31:19;15.50;99.90
41928;DHT22;27616;51.420;6.788;2023-05-10T11:33:46;15.60;99.90
41928;DHT22;27616;51.420;6.788;2023-05-10T11:36:15;15.60;99.90
41928;DHT22;27616;51.420;6.788;2023-05-10T11:38:41;15.60;99.90
41928;DHT22;27616;51.420;6.788;2023-05-10T11:41:11;15.70;99.90
41928;DHT22;27616;51.420;6.788;2023-05-10T11:43:39;15.70;99.90
41928;DHT22;27616;51.420;6.788;2023-05-10T11:46:10;15.70;99.90
41928;DHT22;27616;51.420;6.788;2023-05-10T11:48:39;15.80;99.90
41928;DHT22;27616;51.420;6.788;2023-05-10T11:51:06;15.80;99.90
41928;DHT22;27616;51.420;6.788;2023-05-10T11:53:33;15.80;99.90
41928;DHT22;27616;51.420;6.788;2023-05-10T11:56:06;15.70;99.90
41928;DHT22;27616;51.420;6.788;2023-05-10T11:58:32;15.80;99.90
41928;DHT22;27616;51.420;6.788;2023-05-10T12:00:59;15.90;99.90
41928;DHT22;27616;51.420;6.788;2023-05-10T12:03:29;15.90;99.90
41928;DHT22;27616;51.420;6.788;2023-05-10T12:05:56;16.00;99.90
41928;DHT22;27616;51.420;6.788;2023-05-10T12:08:23;16.00;99.90
41928;DHT22;27616;51.420;6.788;2023-05-10T12:10:50;15.90;99.90
41928;DHT22;27616;51.420;6.788;2023-05-10T12:13:17;15.90;99.90
41928;DHT22;27616;51.420;6.788;2023-05-10T12:15:43;15.90;99.90
41928;DHT22;27616;51.420;6.788;2023-05-10T12:18:11;15.90;99.90
41928;DHT22;27616;51.420;6.788;2023-05-10T12:20:37;15.90;99.90
41928;DHT22;27616;51.420;6.788;2023-05-10T12:23:04;16.00;99.90
41928;DHT22;27616;51.420;6.788;2023-05-10T12:25:35;16.10;99.90
41928;DHT22;27616;51.420;6.788;2023-05-10T12:28:03;16.20;99.90
41928;DHT22;27616;51.420;6.788;2023-05-10T12:30:32;16.10;99.90
41928;DHT22;27616;51.420;6.788;2023-05-10T12:33:09;16.10;99.90
41928;DHT22;27616;51.420;6.788;2023-05-10T12:35:44;16.20;99.90
41928;DHT22;27616;51.420;6.788;2023-05-10T12:38:44;16.20;99.90
41928;DHT22;27616;51.420;6.788;2023-05-10T12:41:13;16.40;99.90
41928;DHT22;27616;51.420;6.788;2023-05-10T12:43:39;16.50;99.90
41928;DHT22;27616;51.420;6.788;2023-05-10T12:46:12;16.70;99.90
41928;DHT22;27616;51.420;6.788;2023-05-10T12:48:39;16.90;99.90
41928;DHT22;27616;51.420;6.788;2023-05-10T12:51:06;17.10;99.90
41928;DHT22;27616;51.420;6.788;2023-05-10T12:53:35;17.30;99.90
41928;DHT22;27616;51.420;6.788;2023-05-10T12:56:01;17.40;99.90
41928;DHT22;27616;51.420;6.788;2023-05-10T12:58:27;17.50;99.90
41928;DHT22;27616;51.420;6.788;2023-05-10T13:00:53;17.80;99.90
41928;DHT22;27616;51.420;6.788;2023-05-10T13:03:19;17.90;99.90
41928;DHT22;27616;51.420;6.788;2023-05-10T13:05:44;18.00;99.90
41928;DHT22;27616;51.420;6.788;2023-05-10T13:08:10;18.20;99.90
41928;DHT22;27616;51.420;6.788;2023-05-10T13:10:36;18.30;99.90
41928;DHT22;27616;51.420;6.788;2023-05-10T13:13:02;18.50;99.90
41928;DHT22;27616;51.420;6.788;2023-05-10T13:15:28;18.60;99.90
41928;DHT22;27616;51.420;6.788;2023-05-10T13:17:54;18.70;99.90
41928;DHT22;27616;51.420;6.788;2023-05-10T13:20:20;18.70;99.90
41928;DHT22;27616;51.420;6.788;2023-05-10T13:22:46;18.50;99.90
41928;DHT22;27616;51.420;6.788;2023-05-10T13:25:13;18.20;99.90
41928;DHT22;27616;51.420;6.788;2023-05-10T13:27:41;17.90;99.90
41928;DHT22;27616;51.420;6.788;2023-05-10T13:30:08;17.90;99.90
41928;DHT22;27616;51.420;6.788;2023-05-10T13:32:34;18.00;99.90
41928;DHT22;27616;51.420;6.788;2023-05-10T13:35:00;18.10;99.90
41928;DHT22;27616;51.420;6.788;2023-05-10T13:37:26;18.00;99.90
41928;DHT22;27616;51.420;6.788;2023-05-10T13:39:52;18.00;99.90
41928;DHT22;27616;51.420;6.788;2023-05-10T13:42:18;18.10;99.90
41928;DHT22;27616;51.420;6.788;2023-05-10T13:44:44;18.20;99.90
41928;DHT22;27616;51.420;6.788;2023-05-10T13:47:09;18.30;99.90
41928;DHT22;27616;51.420;6.788;2023-05-10T13:49:35;18.50;99.90
41928;DHT22;27616;51.420;6.788;2023-05-10T13:52:01;18.70;99.90
41928;DHT22;27616;51.420;6.788;2023-05-10T13:54:36;18.80;99.90
41928;DHT22;27616;51.420;6.788;2023-05-10T13:57:02;18.70;99.90
41928;DHT22;27616;51.420;6.788;2023-05-10T13:59:28;18.50;99.90
41928;DHT22;27616;51.420;6.788;2023-05-10T14:01:54;18.50;99.90
41928;DHT22;27616;51.420;6.788;2023-05-10T14:04:20;18.70;99.90
41928;DHT22;27616;51.420;6.788;2023-05-10T14:06:46;18.80;99.90
41928;DHT22;27616;51.420;6.788;2023-05-10T14:09:11;18.80;99.90
41928;DHT22;27616;51.420;6.788;2023-05-10T14:11:38;18.90;99.90
41928;DHT22;27616;51.420;6.788;2023-05-10T14:14:07;18.90;99.90
41928;DHT22;27616;51.420;6.788;2023-05-10T14:16:33;18.80;99.90
41928;DHT22;27616;51.420;6.788;2023-05-10T14:18:58;18.70;99.90
41928;DHT22;27616;51.420;6.788;2023-05-10T14:21:24;18.70;99.90
41928;DHT22;27616;51.420;6.788;2023-05-10T14:23:50;18.80;99.90
41928;DHT22;27616;51.420;6.788;2023-05-10T14:26:16;19.00;99.90
41928;DHT22;27616;51.420;6.788;2023-05-10T14:28:42;19.20;99.90
41928;DHT22;27616;51.420;6.788;2023-05-10T14:31:07;19.10;99.90
41928;DHT22;27616;51.420;6.788;2023-05-10T14:33:33;19.10;99.90
41928;DHT22;27616;51.420;6.788;2023-05-10T14:35:59;19.20;99.90
41928;DHT22;27616;51.420;6.788;2023-05-10T14:38:25;18.90;99.90
41928;DHT22;27616;51.420;6.788;2023-05-10T14:40:52;18.70;99.90
41928;DHT22;27616;51.420;6.788;2023-05-10T14:43:17;18.80;99.90
41928;DHT22;27616;51.420;6.788;2023-05-10T14:45:43;18.70;99.90
41928;DHT22;27616;51.420;6.788;2023-05-10T14:48:10;18.60;99.90
41928;DHT22;27616;51.420;6.788;2023-05-10T14:50:41;18.50;99.90
41928;DHT22;27616;51.420;6.788;2023-05-10T14:53:06;18.40;99.90
41928;DHT22;27616;51.420;6.788;2023-05-10T14:55:32;18.50;99.90
41928;DHT22;27616;51.420;6.788;2023-05-10T14:57:58;18.40;99.90
41928;DHT22;27616;51.420;6.788;2023-05-10T15:00:24;18.40;99.90
41928;DHT22;27616;51.420;6.788;2023-05-10T15:02:49;18.30;99.90
41928;DHT22;27616;51.420;6.788;2023-05-10T15:05:15;18.30;99.90
41928;DHT22;27616;51.420;6.788;2023-05-10T15:07:41;18.40;99.90
41928;DHT22;27616;51.420;6.788;2023-05-10T15:10:09;18.30;99.90
41928;DHT22;27616;51.420;6.788;2023-05-10T15:12:35;18.30;99.90
41928;DHT22;27616;51.420;6.788;2023-05-10T15:15:01;18.30;99.90
41928;DHT22;27616;51.420;6.788;2023-05-10T15:17:27;18.40;99.90
41928;DHT22;27616;51.420;6.788;2023-05-10T15:19:53;18.40;99.90
41928;DHT22;27616;51.420;6.788;2023-05-10T15:22:19;18.30;99.90
41928;DHT22;27616;51.420;6.788;2023-05-10T15:24:44;18.10;99.90
41928;DHT22;27616;51.420;6.788;2023-05-10T15:27:10;17.90;99.90
41928;DHT22;27616;51.420;6.788;2023-05-10T15:29:36;17.80;99.90
41928;DHT22;27616;51.420;6.788;2023-05-10T15:32:02;17.70;99.90
41928;DHT22;27616;51.420;6.788;2023-05-10T15:34:28;17.60;99.90
41928;DHT22;27616;51.420;6.788;2023-05-10T15:36:54;17.50;99.90
41928;DHT22;27616;51.420;6.788;2023-05-10T15:39:19;17.10;99.90
41928;DHT22;27616;51.420;6.788;2023-05-10T15:41:45;16.70;99.90
41928;DHT22;27616;51.420;6.788;2023-05-10T15:44:11;16.30;99.90
41928;DHT22;27616;51.420;6.788;2023-05-10T15:46:37;16.00;99.90
41928;DHT22;27616;51.420;6.788;2023-05-10T15:49:03;15.70;99.90
41928;DHT22;27616;51.420;6.788;2023-05-10T15:51:29;15.40;99.90
41928;DHT22;27616;51.420;6.788;2023-05-10T15:53:55;15.10;99.90
41928;DHT22;27616;51.420;6.788;2023-05-10T15:56:21;15.00;99.90
41928;DHT22;27616;51.420;6.788;2023-05-10T15:58:47;14.60;99.90